Time;durP1;ratioP1;P1;durP2;ratioP2;P2;SDS_P1;SDS_P2;PMS_P1;PMS_P2;Temp;Humidity;BMP_temperature;BMP_pressure;BME280_temperature;BME280_humidity;BME280_pressure;Samples;Min_cycle;Max_cycle;Signal;HPM_P1;HPM_P2
2021/03/07 00:01:38;;;;;;;31.73;10.57;;;;;;;;;;5004689;28;20038;-64
2021/03/07 00:04:04;;;;;;;25.87;10.70;;;;;;;;;;4997603;28;20034;-64
2021/03/07 00:06:29;;;;;;;25.37;10.10;;;;;;;;;;4997511;28;20029;-64
2021/03/07 00:08:54;;;;;;;23.80;9.70;;;;;;;;;;5004633;28;20081;-64
2021/03/07 00:11:19;;;;;;;24.87;10.43;;;;;;;;;;4995362;28;20104;-64
2021/03/07 00:13:45;;;;;;;26.87;9.67;;;;;;;;;;5003737;28;20151;-64
2021/03/07 00:16:10;;;;;;;29.20;10.37;;;;;;;;;;4998579;28;20116;-64
2021/03/07 00:18:35;;;;;;;23.00;9.90;;;;;;;;;;4996157;28;20744;-64
2021/03/07 00:21:01;;;;;;;28.73;10.63;;;;;;;;;;4991101;28;20025;-64
2021/03/07 00:23:26;;;;;;;27.60;10.43;;;;;;;;;;5005490;28;20042;-65
2021/03/07 00:25:51;;;;;;;27.90;10.40;;;;;;;;;;4998680;28;20092;-65
2021/03/07 00:28:16;;;;;;;38.00;10.50;;;;;;;;;;4998769;28;20888;-65
2021/03/07 00:30:41;;;;;;;26.90;10.27;;;;;;;;;;5005224;28;20068;-64
2021/03/07 00:33:07;;;;;;;29.13;10.40;;;;;;;;;;4996346;28;20034;-65
2021/03/07 00:35:32;;;;;;;28.80;10.50;;;;;;;;;;5008849;28;20022;-65
2021/03/07 00:37:57;;;;;;;28.83;10.20;;;;;;;;;;5000355;28;20038;-64
2021/03/07 00:40:23;;;;;;;25.03;9.53;;;;;;;;;;5011617;28;20049;-64
2021/03/07 00:42:48;;;;;;;27.73;10.33;;;;;;;;;;4998198;28;20022;-64
2021/03/07 00:45:14;;;;;;;29.00;10.27;;;;;;;;;;5008654;28;20054;-64
2021/03/07 00:47:39;;;;;;;38.13;11.57;;;;;;;;;;4997789;28;20042;-64
2021/03/07 00:50:25;;;;;;;25.07;9.77;;;;;;;;;;5004053;28;20134;-64
2021/03/07 00:52:50;;;;;;;26.98;9.75;;;;;;;;;;5006821;28;20124;-65
2021/03/07 00:55:15;;;;;;;30.27;10.17;;;;;;;;;;4995890;28;20559;-64
2021/03/07 00:57:41;;;;;;;29.97;10.87;;;;;;;;;;5011629;28;20370;-64
2021/03/07 01:00:08;;;;;;;29.80;10.80;;;;;;;;;;5003478;28;20407;-64
2021/03/07 01:02:33;;;;;;;25.27;9.73;;;;;;;;;;5002319;28;20032;-64
2021/03/07 01:04:59;;;;;;;28.97;10.47;;;;;;;;;;5014290;28;20438;-65
2021/03/07 01:07:24;;;;;;;30.20;9.70;;;;;;;;;;5015427;28;20463;-64
2021/03/07 01:09:49;;;;;;;24.73;10.27;;;;;;;;;;5015890;28;20033;-64
2021/03/07 01:12:14;;;;;;;26.33;9.83;;;;;;;;;;5003591;28;20014;-64
2021/03/07 01:14:40;;;;;;;20.23;9.53;;;;;;;;;;4996267;28;20053;-64
2021/03/07 01:17:05;;;;;;;30.83;10.53;;;;;;;;;;4996018;28;20084;-64
2021/03/07 01:19:34;;;;;;;31.47;10.53;;;;;;;;;;4995491;28;20062;-64
2021/03/07 01:22:00;;;;;;;26.23;9.57;;;;;;;;;;4990557;28;20395;-66
2021/03/07 01:24:25;;;;;;;22.07;9.40;;;;;;;;;;4994385;28;20038;-64
2021/03/07 01:26:50;;;;;;;25.53;9.70;;;;;;;;;;4994999;28;20344;-64
2021/03/07 01:29:16;;;;;;;34.10;10.43;;;;;;;;;;4995579;28;20041;-64
2021/03/07 01:31:41;;;;;;;24.03;10.40;;;;;;;;;;4995380;28;20038;-64
2021/03/07 01:34:06;;;;;;;32.67;10.73;;;;;;;;;;4995564;28;20796;-64
2021/03/07 01:36:32;;;;;;;32.20;10.20;;;;;;;;;;4995686;28;20045;-64
2021/03/07 01:38:57;;;;;;;29.23;11.10;;;;;;;;;;4995384;28;20046;-64
2021/03/07 01:41:24;;;;;;;27.03;10.60;;;;;;;;;;4995490;28;20022;-64
2021/03/07 01:43:49;;;;;;;26.23;10.60;;;;;;;;;;4995534;28;20037;-64
2021/03/07 01:46:17;;;;;;;33.43;11.67;;;;;;;;;;4992379;28;20038;-64
2021/03/07 01:48:43;;;;;;;34.90;10.67;;;;;;;;;;4994247;28;20023;-65
2021/03/07 01:51:08;;;;;;;26.77;9.90;;;;;;;;;;4993314;28;20031;-63
2021/03/07 01:53:34;;;;;;;29.33;9.83;;;;;;;;;;4994601;28;20110;-64
2021/03/07 01:55:59;;;;;;;29.80;9.47;;;;;;;;;;4994482;28;20014;-64
2021/03/07 01:58:25;;;;;;;30.27;10.43;;;;;;;;;;4994429;28;20103;-64
2021/03/07 02:00:50;;;;;;;27.73;9.57;;;;;;;;;;4994425;28;20100;-64
2021/03/07 02:03:15;;;;;;;32.27;10.10;;;;;;;;;;4993983;28;20033;-64
2021/03/07 02:05:41;;;;;;;32.07;11.13;;;;;;;;;;4995374;28;20045;-64
2021/03/07 02:08:06;;;;;;;32.07;10.90;;;;;;;;;;4994196;28;20022;-64
2021/03/07 02:10:33;;;;;;;26.20;9.47;;;;;;;;;;4995230;28;20014;-64
2021/03/07 02:13:31;;;;;;;40.23;10.27;;;;;;;;;;5013011;28;20036;-64
2021/03/07 02:15:58;;;;;;;28.70;10.60;;;;;;;;;;5013077;28;20037;-64
2021/03/07 02:18:23;;;;;;;26.63;10.27;;;;;;;;;;5014515;28;20410;-64
2021/03/07 02:20:51;;;;;;;39.43;11.50;;;;;;;;;;5014635;28;20049;-65
2021/03/07 02:23:18;;;;;;;32.97;10.33;;;;;;;;;;5014463;28;20096;-64
2021/03/07 02:25:44;;;;;;;30.67;10.10;;;;;;;;;;5014555;28;20108;-64
2021/03/07 02:28:10;;;;;;;29.97;9.80;;;;;;;;;;5014010;28;20478;-64
2021/03/07 02:30:35;;;;;;;31.97;10.90;;;;;;;;;;5014462;28;20024;-64
2021/03/07 02:33:07;;;;;;;30.97;11.87;;;;;;;;;;5014287;28;20352;-64
2021/03/07 02:35:33;;;;;;;35.27;11.80;;;;;;;;;;5014296;28;20053;-64
2021/03/07 02:38:01;;;;;;;32.77;11.07;;;;;;;;;;5014086;28;20504;-64
2021/03/07 02:40:27;;;;;;;39.43;12.13;;;;;;;;;;5013907;28;20394;-64
2021/03/07 02:42:56;;;;;;;32.77;11.90;;;;;;;;;;5014376;28;20100;-64
2021/03/07 02:45:22;;;;;;;38.00;11.17;;;;;;;;;;5014233;28;20081;-64
2021/03/07 02:47:49;;;;;;;25.10;10.53;;;;;;;;;;5013937;28;20030;-64
2021/03/07 02:50:18;;;;;;;36.27;11.83;;;;;;;;;;5014065;28;20082;-64
2021/03/07 02:52:49;;;;;;;35.47;11.53;;;;;;;;;;5013113;28;20050;-64
2021/03/07 02:55:16;;;;;;;36.03;12.63;;;;;;;;;;5013967;28;20029;-64
2021/03/07 02:57:42;;;;;;;36.40;11.53;;;;;;;;;;5013821;28;20038;-64
2021/03/07 03:00:09;;;;;;;34.40;11.63;;;;;;;;;;5013152;28;20374;-65
2021/03/07 03:02:34;;;;;;;37.40;11.87;;;;;;;;;;5013471;28;20034;-64
2021/03/07 03:05:00;;;;;;;47.00;12.80;;;;;;;;;;5013760;28;20030;-64
2021/03/07 03:07:26;;;;;;;35.57;10.80;;;;;;;;;;5013632;28;20018;-64
2021/03/07 03:09:52;;;;;;;35.43;12.73;;;;;;;;;;5013747;28;20483;-65
2021/03/07 03:12:18;;;;;;;42.07;12.80;;;;;;;;;;5000818;28;20034;-64
2021/03/07 03:14:44;;;;;;;37.27;11.80;;;;;;;;;;4994099;28;20073;-64
2021/03/07 03:17:09;;;;;;;37.30;12.37;;;;;;;;;;4993546;28;20395;-64
2021/03/07 03:19:36;;;;;;;39.57;12.77;;;;;;;;;;4992700;28;20053;-63
2021/03/07 03:22:01;;;;;;;42.93;12.17;;;;;;;;;;4993800;28;20033;-64
2021/03/07 03:24:26;;;;;;;33.83;12.37;;;;;;;;;;4993784;28;20034;-64
2021/03/07 03:27:01;;;;;;;31.73;11.47;;;;;;;;;;4993691;28;20042;-64
2021/03/07 03:29:26;;;;;;;30.90;11.67;;;;;;;;;;4993763;28;20018;-64
2021/03/07 03:31:52;;;;;;;38.63;11.97;;;;;;;;;;4993677;28;20109;-64
2021/03/07 03:34:17;;;;;;;37.87;12.23;;;;;;;;;;4993678;28;20042;-64
2021/03/07 03:36:42;;;;;;;35.33;11.70;;;;;;;;;;4993686;28;20455;-64
2021/03/07 03:39:13;;;;;;;29.83;11.33;;;;;;;;;;4993375;28;20038;-64
2021/03/07 03:41:38;;;;;;;30.97;11.80;;;;;;;;;;4993673;28;20038;-64
2021/03/07 03:44:07;;;;;;;30.47;11.53;;;;;;;;;;4993244;28;20054;-64
2021/03/07 03:46:33;;;;;;;37.90;12.13;;;;;;;;;;4993591;28;20023;-64
2021/03/07 03:49:00;;;;;;;42.60;12.97;;;;;;;;;;4993695;28;20114;-64
2021/03/07 03:51:26;;;;;;;37.30;12.03;;;;;;;;;;4993543;28;20076;-64
2021/03/07 03:53:51;;;;;;;36.17;11.57;;;;;;;;;;4993707;28;20423;-65
2021/03/07 03:56:17;;;;;;;37.47;12.63;;;;;;;;;;4993133;28;20438;-64
2021/03/07 03:58:43;;;;;;;38.27;11.80;;;;;;;;;;4993516;28;20039;-64
2021/03/07 04:01:09;;;;;;;34.97;12.20;;;;;;;;;;4993718;28;20076;-64
2021/03/07 04:03:35;;;;;;;31.07;12.00;;;;;;;;;;4993859;28;20030;-64
2021/03/07 04:06:01;;;;;;;36.03;11.30;;;;;;;;;;4996272;28;20471;-64
2021/03/07 04:08:26;;;;;;;30.80;10.67;;;;;;;;;;4995348;28;20038;-64
2021/03/07 04:10:52;;;;;;;38.23;12.10;;;;;;;;;;4998413;28;20034;-64
2021/03/07 04:13:19;;;;;;;30.13;11.47;;;;;;;;;;5016513;28;20022;-64
2021/03/07 04:15:45;;;;;;;31.30;11.67;;;;;;;;;;5016895;28;20034;-64
2021/03/07 04:18:12;;;;;;;35.37;12.77;;;;;;;;;;5016741;28;20053;-64
2021/03/07 04:20:38;;;;;;;44.23;12.67;;;;;;;;;;5017074;28;20103;-64
2021/03/07 04:23:03;;;;;;;36.27;13.00;;;;;;;;;;5016635;28;20061;-64
2021/03/07 04:25:28;;;;;;;35.10;12.20;;;;;;;;;;4995636;28;20030;-64
2021/03/07 04:27:55;;;;;;;37.57;12.60;;;;;;;;;;4995843;28;20383;-64
2021/03/07 04:30:20;;;;;;;36.70;11.70;;;;;;;;;;4996318;28;20375;-64
2021/03/07 04:32:46;;;;;;;44.33;13.57;;;;;;;;;;4996904;28;20109;-64
2021/03/07 04:35:12;;;;;;;37.30;13.50;;;;;;;;;;4996917;28;20018;-63
2021/03/07 04:37:37;;;;;;;42.53;12.40;;;;;;;;;;4996856;28;20026;-64
2021/03/07 04:40:03;;;;;;;40.73;13.23;;;;;;;;;;4996807;28;20133;-64
2021/03/07 04:42:28;;;;;;;38.50;13.20;;;;;;;;;;4995529;28;20072;-64
2021/03/07 04:44:53;;;;;;;42.80;12.03;;;;;;;;;;4996727;28;20052;-65
2021/03/07 04:47:19;;;;;;;42.47;12.73;;;;;;;;;;4996595;28;20391;-64
2021/03/07 04:49:44;;;;;;;37.53;12.23;;;;;;;;;;4996477;28;20479;-64
2021/03/07 04:52:09;;;;;;;38.50;13.33;;;;;;;;;;4996482;28;20388;-64
2021/03/07 04:54:34;;;;;;;42.20;12.93;;;;;;;;;;4996666;28;20105;-64
2021/03/07 04:57:03;;;;;;;34.40;11.43;;;;;;;;;;4996163;28;20046;-64
2021/03/07 04:59:29;;;;;;;35.53;13.73;;;;;;;;;;4996490;28;20038;-64
2021/03/07 05:01:55;;;;;;;38.03;12.37;;;;;;;;;;4995172;28;20387;-64
2021/03/07 05:04:20;;;;;;;37.90;12.57;;;;;;;;;;4996341;28;20018;-64
2021/03/07 05:06:45;;;;;;;45.43;13.77;;;;;;;;;;4996367;28;20482;-63
2021/03/07 05:09:11;;;;;;;34.67;12.47;;;;;;;;;;4996265;28;20061;-64
2021/03/07 05:11:37;;;;;;;36.90;11.57;;;;;;;;;;4996112;28;20096;-65
2021/03/07 05:14:03;;;;;;;32.33;11.43;;;;;;;;;;4996286;28;20105;-64
2021/03/07 05:16:28;;;;;;;42.37;13.30;;;;;;;;;;4995678;28;20034;-64
2021/03/07 05:18:54;;;;;;;34.03;12.00;;;;;;;;;;4996085;28;20041;-64
2021/03/07 05:21:19;;;;;;;46.10;12.93;;;;;;;;;;4995956;28;20035;-64
2021/03/07 05:23:44;;;;;;;47.73;12.87;;;;;;;;;;4996107;28;20041;-64
2021/03/07 05:26:10;;;;;;;40.60;13.40;;;;;;;;;;4995848;28;20344;-64
2021/03/07 05:28:36;;;;;;;43.13;14.33;;;;;;;;;;4996008;28;20546;-64
2021/03/07 05:31:01;;;;;;;38.20;12.70;;;;;;;;;;4995799;28;20070;-64
2021/03/07 05:33:26;;;;;;;37.87;12.77;;;;;;;;;;4996216;28;20058;-64
2021/03/07 05:35:52;;;;;;;43.40;13.30;;;;;;;;;;4995569;28;20026;-64
2021/03/07 05:38:17;;;;;;;36.30;12.17;;;;;;;;;;4995569;28;20045;-64
2021/03/07 05:40:42;;;;;;;41.17;11.83;;;;;;;;;;4995755;28;20022;-64
2021/03/07 05:43:08;;;;;;;34.77;12.30;;;;;;;;;;4995608;28;20030;-64
2021/03/07 05:45:34;;;;;;;38.17;12.50;;;;;;;;;;4995761;28;20057;-64
2021/03/07 05:47:59;;;;;;;42.63;12.70;;;;;;;;;;4995527;28;20034;-64
2021/03/07 05:50:24;;;;;;;38.07;13.30;;;;;;;;;;4995504;28;20030;-64
2021/03/07 05:52:52;;;;;;;33.27;11.90;;;;;;;;;;4995479;28;20486;-64
2021/03/07 05:55:17;;;;;;;43.23;12.63;;;;;;;;;;4995408;28;20031;-64
2021/03/07 05:57:46;;;;;;;39.43;13.50;;;;;;;;;;4995658;28;20027;-64
2021/03/07 06:00:13;;;;;;;39.30;13.23;;;;;;;;;;4995204;28;20128;-64
2021/03/07 06:02:38;;;;;;;39.43;12.53;;;;;;;;;;4995255;28;20093;-64
2021/03/07 06:05:04;;;;;;;41.17;13.23;;;;;;;;;;4995179;28;20425;-64
2021/03/07 06:07:29;;;;;;;35.57;11.83;;;;;;;;;;4995234;28;20035;-64
2021/03/07 06:10:09;;;;;;;33.53;12.30;;;;;;;;;;4995209;28;20106;-64
2021/03/07 06:12:34;;;;;;;39.27;12.80;;;;;;;;;;5009895;28;20029;-65
2021/03/07 06:15:00;;;;;;;32.63;12.80;;;;;;;;;;5014483;28;20029;-64
2021/03/07 06:17:37;;;;;;;40.10;12.17;;;;;;;;;;5014561;28;20026;-64
2021/03/07 06:20:04;;;;;;;39.37;12.47;;;;;;;;;;5014223;28;20482;-64
2021/03/07 06:22:30;;;;;;;40.80;12.60;;;;;;;;;;5014541;28;20041;-64
2021/03/07 06:24:56;;;;;;;36.80;13.10;;;;;;;;;;5014440;28;20025;-65
2021/03/07 06:27:22;;;;;;;44.60;13.90;;;;;;;;;;5013621;28;20033;-64
2021/03/07 06:29:56;;;;;;;45.57;13.30;;;;;;;;;;5014481;28;20491;-64
2021/03/07 06:32:22;;;;;;;42.57;12.83;;;;;;;;;;5014290;28;20037;-64
2021/03/07 06:34:48;;;;;;;34.33;12.60;;;;;;;;;;5014418;28;20459;-64
2021/03/07 06:37:13;;;;;;;40.63;12.87;;;;;;;;;;5014146;28;20049;-64
2021/03/07 06:39:39;;;;;;;37.40;12.43;;;;;;;;;;5014270;28;20038;-63
2021/03/07 06:42:05;;;;;;;33.43;11.80;;;;;;;;;;5014112;28;20030;-64
2021/03/07 06:44:30;;;;;;;34.57;13.47;;;;;;;;;;5013914;28;20061;-64
2021/03/07 06:47:05;;;;;;;34.10;11.83;;;;;;;;;;5014250;28;20014;-64
2021/03/07 06:49:30;;;;;;;39.50;14.02;;;;;;;;;;5014117;28;20506;-64
2021/03/07 06:52:12;;;;;;;34.40;12.10;;;;;;;;;;5013887;28;20081;-65
2021/03/07 06:54:38;;;;;;;28.30;11.83;;;;;;;;;;5014026;28;20065;-64
2021/03/07 06:57:03;;;;;;;32.73;12.77;;;;;;;;;;5009521;28;20089;-64
2021/03/07 06:59:29;;;;;;;41.00;12.37;;;;;;;;;;4989905;28;20034;-64
2021/03/07 07:01:56;;;;;;;39.57;13.13;;;;;;;;;;4992878;28;20026;-64
2021/03/07 07:04:22;;;;;;;37.47;12.83;;;;;;;;;;4981353;28;20380;-64
2021/03/07 07:07:04;;;;;;;33.10;13.07;;;;;;;;;;4974373;28;20026;-64
2021/03/07 07:09:29;;;;;;;44.07;13.23;;;;;;;;;;4975110;28;20034;-64
2021/03/07 07:11:55;;;;;;;40.30;13.50;;;;;;;;;;4993113;28;20034;-65
2021/03/07 07:14:42;;;;;;;43.53;14.37;;;;;;;;;;4974521;28;20019;-64
2021/03/07 07:17:14;;;;;;;34.80;12.47;;;;;;;;;;4974535;28;20035;-64
2021/03/07 07:19:40;;;;;;;39.27;15.17;;;;;;;;;;4974547;28;20057;-64
2021/03/07 07:22:06;;;;;;;45.43;13.67;;;;;;;;;;4974407;28;20034;-64
2021/03/07 07:24:32;;;;;;;31.87;12.73;;;;;;;;;;4974599;28;20025;-64
2021/03/07 07:26:57;;;;;;;22.63;11.77;;;;;;;;;;4975866;28;20030;-65
2021/03/07 07:29:25;;;;;;;23.40;11.13;;;;;;;;;;4992415;28;20030;-64
2021/03/07 07:31:53;;;;;;;20.80;9.35;;;;;;;;;;4992956;28;20452;-65
2021/03/07 07:34:25;;;;;;;19.38;9.18;;;;;;;;;;4992493;28;20435;-65
2021/03/07 07:36:56;;;;;;;19.02;8.18;;;;;;;;;;4993721;28;20027;-65
2021/03/07 07:39:32;;;;;;;16.45;7.85;;;;;;;;;;4993558;28;20042;-65
2021/03/07 07:41:58;;;;;;;14.73;7.03;;;;;;;;;;4993620;28;20038;-66
2021/03/07 07:44:27;;;;;;;16.63;7.88;;;;;;;;;;4993752;28;20053;-65
2021/03/07 07:47:03;;;;;;;14.57;8.00;;;;;;;;;;4993678;28;20053;-65
2021/03/07 07:49:35;;;;;;;17.98;8.48;;;;;;;;;;4993401;28;20029;-65
2021/03/07 07:52:00;;;;;;;14.73;8.52;;;;;;;;;;4993559;28;20121;-65
2021/03/07 07:54:44;;;;;;;14.30;6.90;;;;;;;;;;4993676;28;20110;-65
2021/03/07 07:57:29;;;;;;;12.18;7.00;;;;;;;;;;4993404;28;20026;-66
2021/03/07 07:59:55;;;;;;;13.43;6.88;;;;;;;;;;4993541;28;20043;-65
2021/03/07 08:02:38;;;;;;;21.30;6.28;;;;;;;;;;4993428;28;20034;-66
2021/03/07 08:05:25;;;;;;;13.23;6.88;;;;;;;;;;4993464;28;20031;-66
2021/03/07 08:08:00;;;;;;;11.73;6.05;;;;;;;;;;4993314;28;20030;-66
2021/03/07 08:10:44;;;;;;;15.60;6.55;;;;;;;;;;4993624;28;20066;-66
2021/03/07 08:13:11;;;;;;;11.85;6.55;;;;;;;;;;4973707;28;20061;-65
2021/03/07 08:15:47;;;;;;;13.88;6.28;;;;;;;;;;4972894;28;20395;-65
2021/03/07 08:18:13;;;;;;;14.57;7.68;;;;;;;;;;4973873;28;20038;-66
2021/03/07 08:20:38;;;;;;;11.60;6.32;;;;;;;;;;4974093;28;20039;-65
2021/03/07 08:23:11;;;;;;;11.80;6.60;;;;;;;;;;4973653;28;20143;-66
2021/03/07 08:25:51;;;;;;;15.25;8.00;;;;;;;;;;4973368;28;20479;-65
2021/03/07 08:28:26;;;;;;;10.98;5.93;;;;;;;;;;4973133;28;20031;-65
2021/03/07 08:30:55;;;;;;;13.48;6.32;;;;;;;;;;4973953;28;20035;-65
2021/03/07 08:33:24;;;;;;;12.60;6.45;;;;;;;;;;4973693;28;20030;-65
2021/03/07 08:36:08;;;;;;;18.85;7.32;;;;;;;;;;4981114;28;20463;-65
2021/03/07 08:38:33;;;;;;;12.90;6.22;;;;;;;;;;4991928;28;20066;-65
2021/03/07 08:40:59;;;;;;;11.13;6.38;;;;;;;;;;4992448;28;20042;-66
2021/03/07 08:43:24;;;;;;;12.25;6.20;;;;;;;;;;4991066;28;20018;-65
2021/03/07 08:45:59;;;;;;;12.18;5.88;;;;;;;;;;4991646;28;20046;-66
2021/03/07 08:48:25;;;;;;;14.15;6.07;;;;;;;;;;4983394;28;20030;-65
2021/03/07 08:50:50;;;;;;;13.48;6.55;;;;;;;;;;4993027;28;20037;-66
2021/03/07 08:53:23;;;;;;;17.02;7.18;;;;;;;;;;4994664;28;20041;-65
2021/03/07 08:55:48;;;;;;;19.80;7.18;;;;;;;;;;4994417;28;20022;-65
2021/03/07 08:58:14;;;;;;;13.52;6.45;;;;;;;;;;4993693;28;20050;-65
2021/03/07 09:00:43;;;;;;;11.07;5.72;;;;;;;;;;4995067;28;20434;-65
2021/03/07 09:03:11;;;;;;;12.13;5.97;;;;;;;;;;4995353;28;20413;-65
2021/03/07 09:05:36;;;;;;;13.05;6.30;;;;;;;;;;4995169;28;20026;-65
2021/03/07 09:08:02;;;;;;;20.88;6.85;;;;;;;;;;4994745;28;20045;-65
2021/03/07 09:10:35;;;;;;;12.90;7.40;;;;;;;;;;4995203;28;20029;-66
2021/03/07 09:13:10;;;;;;;11.93;6.80;;;;;;;;;;4993328;28;20463;-65
2021/03/07 09:15:36;;;;;;;12.48;7.22;;;;;;;;;;4992976;28;20049;-65
2021/03/07 09:18:02;;;;;;;13.15;6.45;;;;;;;;;;4993488;28;20062;-65
2021/03/07 09:20:40;;;;;;;14.73;7.20;;;;;;;;;;4993865;28;20112;-65
2021/03/07 09:23:06;;;;;;;10.77;6.95;;;;;;;;;;4994058;28;20041;-65
2021/03/07 09:25:31;;;;;;;10.57;6.03;;;;;;;;;;4994368;28;20035;-65
2021/03/07 09:27:56;;;;;;;13.88;6.85;;;;;;;;;;4995140;28;20014;-65
2021/03/07 09:30:22;;;;;;;12.77;6.55;;;;;;;;;;4994531;28;20036;-65
2021/03/07 09:32:48;;;;;;;17.48;6.70;;;;;;;;;;4992779;28;20078;-66
2021/03/07 09:35:24;;;;;;;14.20;7.43;;;;;;;;;;4986782;28;20022;-66
2021/03/07 09:38:02;;;;;;;13.48;6.75;;;;;;;;;;4990822;28;20034;-65
2021/03/07 09:40:28;;;;;;;13.73;6.38;;;;;;;;;;4990487;28;20411;-65
2021/03/07 09:43:00;;;;;;;11.07;6.45;;;;;;;;;;4990519;28;20046;-66
2021/03/07 09:45:26;;;;;;;9.40;5.95;;;;;;;;;;4991872;28;20059;-66
2021/03/07 09:47:53;;;;;;;15.73;6.15;;;;;;;;;;4991396;28;20051;-65
2021/03/07 09:50:20;;;;;;;14.55;6.20;;;;;;;;;;4991648;28;20042;-66
2021/03/07 09:52:46;;;;;;;13.48;5.68;;;;;;;;;;4991322;28;20649;-65
2021/03/07 09:55:11;;;;;;;11.95;6.15;;;;;;;;;;4992793;28;20098;-65
2021/03/07 09:57:37;;;;;;;10.38;6.88;;;;;;;;;;4993261;28;20114;-65
2021/03/07 10:00:03;;;;;;;11.32;6.88;;;;;;;;;;4993260;28;20129;-66
2021/03/07 10:02:35;;;;;;;13.25;6.97;;;;;;;;;;4993338;28;20093;-66
2021/03/07 10:05:09;;;;;;;14.80;6.43;;;;;;;;;;4993512;28;20027;-66
2021/03/07 10:07:34;;;;;;;12.23;6.18;;;;;;;;;;4989870;28;20042;-66
2021/03/07 10:10:15;;;;;;;16.83;9.77;;;;;;;;;;4992829;28;20023;-66
2021/03/07 10:12:45;;;;;;;18.67;10.27;;;;;;;;;;4992986;28;20038;-66
2021/03/07 10:15:12;;;;;;;17.98;7.32;;;;;;;;;;4994443;28;20116;-66
2021/03/07 10:17:38;;;;;;;10.55;6.50;;;;;;;;;;4993097;28;20086;-66
2021/03/07 10:20:04;;;;;;;16.75;6.57;;;;;;;;;;4993259;28;20137;-67
2021/03/07 10:22:35;;;;;;;13.93;6.15;;;;;;;;;;4992053;28;20470;-66
2021/03/07 10:25:00;;;;;;;17.25;8.18;;;;;;;;;;4988361;28;20033;-66
2021/03/07 10:27:29;;;;;;;22.52;10.15;;;;;;;;;;4990938;28;20030;-66
2021/03/07 10:29:55;;;;;;;19.60;8.60;;;;;;;;;;4993749;28;20044;-66
2021/03/07 10:32:20;;;;;;;11.38;6.75;;;;;;;;;;4990926;28;20022;-66
2021/03/07 10:34:49;;;;;;;9.90;5.60;;;;;;;;;;4989605;28;20030;-66
2021/03/07 10:37:34;;;;;;;10.02;5.47;;;;;;;;;;4990344;28;20061;-67
2021/03/07 10:39:59;;;;;;;14.40;6.13;;;;;;;;;;4989845;28;20035;-66
2021/03/07 10:42:34;;;;;;;9.63;5.28;;;;;;;;;;4989353;28;20034;-66
2021/03/07 10:45:18;;;;;;;9.98;5.95;;;;;;;;;;4991731;28;20486;-66
2021/03/07 10:47:43;;;;;;;12.32;6.28;;;;;;;;;;4990145;28;20038;-66
2021/03/07 10:50:09;;;;;;;10.75;5.90;;;;;;;;;;4989746;28;20072;-66
2021/03/07 10:52:34;;;;;;;10.68;5.07;;;;;;;;;;4990182;28;20030;-66
2021/03/07 10:55:00;;;;;;;16.02;6.63;;;;;;;;;;4992659;28;20030;-66
2021/03/07 10:57:25;;;;;;;14.68;5.07;;;;;;;;;;4992138;28;20545;-67
2021/03/07 10:59:52;;;;;;;10.20;5.18;;;;;;;;;;4993373;28;20034;-66
2021/03/07 11:02:17;;;;;;;9.98;5.28;;;;;;;;;;4992520;28;20448;-66
2021/03/07 11:04:44;;;;;;;13.18;5.80;;;;;;;;;;4987291;28;20096;-67
2021/03/07 11:07:09;;;;;;;15.48;6.30;;;;;;;;;;4991331;28;20484;-66
2021/03/07 11:09:34;;;;;;;11.07;5.57;;;;;;;;;;4991544;28;20054;-66
2021/03/07 11:12:00;;;;;;;11.48;5.25;;;;;;;;;;4992124;28;20480;-66
2021/03/07 11:14:25;;;;;;;14.70;6.65;;;;;;;;;;4984433;28;20034;-66
2021/03/07 11:16:50;;;;;;;9.90;6.72;;;;;;;;;;4989981;28;20137;-66
2021/03/07 11:19:16;;;;;;;12.95;6.00;;;;;;;;;;4989709;28;20502;-66
2021/03/07 11:21:41;;;;;;;9.13;5.85;;;;;;;;;;4989313;28;20044;-66
2021/03/07 11:24:06;;;;;;;8.55;5.47;;;;;;;;;;4989878;28;20018;-66
2021/03/07 11:26:32;;;;;;;9.80;5.53;;;;;;;;;;4991684;28;20101;-66
2021/03/07 11:28:57;;;;;;;10.88;5.72;;;;;;;;;;4992188;28;20060;-66
2021/03/07 11:31:22;;;;;;;10.70;5.85;;;;;;;;;;4993360;28;20061;-66
2021/03/07 11:33:47;;;;;;;9.77;5.80;;;;;;;;;;4978637;28;20030;-66
2021/03/07 11:36:13;;;;;;;12.68;6.63;;;;;;;;;;4990610;28;20050;-66
2021/03/07 11:38:38;;;;;;;12.27;5.60;;;;;;;;;;4987311;28;20368;-66
2021/03/07 11:41:03;;;;;;;8.65;5.55;;;;;;;;;;4990388;28;20038;-66
2021/03/07 11:43:28;;;;;;;9.65;5.30;;;;;;;;;;4988220;28;20045;-66
2021/03/07 11:45:54;;;;;;;10.93;6.20;;;;;;;;;;4989597;28;20495;-67
2021/03/07 11:48:19;;;;;;;7.97;5.40;;;;;;;;;;4984794;28;20038;-66
2021/03/07 11:50:44;;;;;;;8.27;5.13;;;;;;;;;;4987525;28;20038;-66
2021/03/07 11:53:09;;;;;;;8.35;5.40;;;;;;;;;;4989296;28;20701;-66
2021/03/07 11:55:35;;;;;;;10.48;4.80;;;;;;;;;;4990258;28;20031;-66
2021/03/07 11:58:00;;;;;;;7.78;5.07;;;;;;;;;;4988846;28;20042;-66
2021/03/07 12:00:25;;;;;;;12.55;6.10;;;;;;;;;;5002893;28;20041;-66
2021/03/07 12:02:51;;;;;;;15.32;7.95;;;;;;;;;;4991438;28;20048;-66
2021/03/07 12:05:16;;;;;;;8.82;5.68;;;;;;;;;;4988937;28;20376;-66
2021/03/07 12:07:41;;;;;;;12.30;4.78;;;;;;;;;;4987731;28;20101;-66
2021/03/07 12:10:07;;;;;;;8.70;5.05;;;;;;;;;;4987596;28;20368;-66
2021/03/07 12:12:32;;;;;;;10.82;5.57;;;;;;;;;;4988016;28;20548;-66
2021/03/07 12:14:57;;;;;;;12.48;6.88;;;;;;;;;;4992653;28;20383;-66
2021/03/07 12:17:22;;;;;;;19.20;9.02;;;;;;;;;;4987376;28;20038;-66
2021/03/07 12:19:48;;;;;;;10.57;5.38;;;;;;;;;;4987194;28;20081;-66
2021/03/07 12:22:13;;;;;;;12.77;5.30;;;;;;;;;;4987267;28;20031;-66
2021/03/07 12:24:39;;;;;;;7.45;4.38;;;;;;;;;;4988925;28;20058;-66
2021/03/07 12:27:07;;;;;;;9.65;5.70;;;;;;;;;;4991142;28;20053;-66
2021/03/07 12:29:33;;;;;;;10.40;4.85;;;;;;;;;;4999014;28;20049;-66
2021/03/07 12:31:58;;;;;;;9.07;5.45;;;;;;;;;;4995033;28;20035;-66
2021/03/07 12:34:23;;;;;;;8.93;5.50;;;;;;;;;;4991686;28;20049;-66
2021/03/07 12:36:49;;;;;;;10.57;5.28;;;;;;;;;;4994020;28;20088;-67
2021/03/07 12:39:14;;;;;;;9.90;6.00;;;;;;;;;;4992314;28;20465;-66
2021/03/07 12:41:39;;;;;;;9.05;5.00;;;;;;;;;;4991303;28;20070;-67
2021/03/07 12:44:04;;;;;;;9.02;5.43;;;;;;;;;;5002488;28;20108;-66
2021/03/07 12:46:30;;;;;;;11.30;4.90;;;;;;;;;;4997786;28;20041;-66
2021/03/07 12:48:55;;;;;;;12.10;5.80;;;;;;;;;;4992644;28;20062;-66
2021/03/07 12:51:20;;;;;;;7.93;4.70;;;;;;;;;;4991453;28;20018;-66
2021/03/07 12:53:45;;;;;;;7.43;5.57;;;;;;;;;;4990299;28;20034;-66
2021/03/07 12:56:11;;;;;;;8.85;5.20;;;;;;;;;;4993918;28;20034;-66
2021/03/07 12:58:36;;;;;;;8.82;5.22;;;;;;;;;;4988803;28;20065;-66
2021/03/07 13:01:01;;;;;;;11.40;5.78;;;;;;;;;;4995015;28;20597;-66
2021/03/07 13:03:26;;;;;;;11.00;5.38;;;;;;;;;;4985262;28;20384;-66
2021/03/07 13:05:52;;;;;;;11.48;6.13;;;;;;;;;;4991443;28;20026;-66
2021/03/07 13:08:17;;;;;;;14.25;5.68;;;;;;;;;;4991064;28;20044;-66
2021/03/07 13:10:42;;;;;;;9.13;4.75;;;;;;;;;;4991898;28;20129;-66
2021/03/07 13:13:07;;;;;;;11.32;5.07;;;;;;;;;;4993662;28;20018;-66
2021/03/07 13:15:33;;;;;;;13.25;5.05;;;;;;;;;;5004604;28;20512;-66
2021/03/07 13:17:58;;;;;;;8.27;5.03;;;;;;;;;;4992924;28;20072;-66
2021/03/07 13:20:23;;;;;;;8.75;5.72;;;;;;;;;;4990030;28;20042;-66
2021/03/07 13:22:49;;;;;;;11.30;5.60;;;;;;;;;;4990189;28;20034;-66
2021/03/07 13:25:14;;;;;;;10.63;5.55;;;;;;;;;;4992804;28;20037;-66
2021/03/07 13:27:39;;;;;;;9.73;5.25;;;;;;;;;;4994339;28;20028;-66
2021/03/07 13:30:06;;;;;;;9.80;5.38;;;;;;;;;;4989339;28;20467;-66
2021/03/07 13:32:31;;;;;;;8.10;4.75;;;;;;;;;;4992378;28;20034;-66
2021/03/07 13:34:56;;;;;;;7.75;5.03;;;;;;;;;;4993280;28;20018;-66
2021/03/07 13:37:22;;;;;;;9.85;5.15;;;;;;;;;;4991019;28;20467;-66
2021/03/07 13:39:47;;;;;;;12.02;5.28;;;;;;;;;;4999485;28;20034;-66
2021/03/07 13:42:12;;;;;;;10.93;5.20;;;;;;;;;;5001541;28;20762;-66
2021/03/07 13:44:37;;;;;;;11.13;5.18;;;;;;;;;;5001213;28;20046;-66
2021/03/07 13:47:03;;;;;;;10.77;4.95;;;;;;;;;;4999307;28;20478;-66
2021/03/07 13:49:28;;;;;;;10.50;5.00;;;;;;;;;;4996125;28;20062;-66
2021/03/07 13:51:53;;;;;;;8.73;5.30;;;;;;;;;;4990971;28;20121;-66
2021/03/07 13:54:20;;;;;;;11.07;4.68;;;;;;;;;;4991183;28;20038;-66
2021/03/07 13:56:45;;;;;;;9.35;5.15;;;;;;;;;;4988198;28;20026;-66
2021/03/07 13:59:10;;;;;;;15.30;5.82;;;;;;;;;;4988966;28;20233;-66
2021/03/07 14:01:36;;;;;;;9.10;5.72;;;;;;;;;;4987311;28;20776;-67
2021/03/07 14:04:01;;;;;;;7.70;4.65;;;;;;;;;;4984100;28;20041;-67
2021/03/07 14:06:26;;;;;;;8.85;5.13;;;;;;;;;;4981759;28;20050;-66
2021/03/07 14:08:52;;;;;;;10.23;5.78;;;;;;;;;;4984209;28;20074;-66
2021/03/07 14:11:17;;;;;;;11.13;5.72;;;;;;;;;;4990368;28;20013;-66
2021/03/07 14:13:42;;;;;;;8.00;4.75;;;;;;;;;;4984614;28;20448;-66
2021/03/07 14:16:08;;;;;;;10.13;4.90;;;;;;;;;;4986331;28;20038;-66
2021/03/07 14:18:33;;;;;;;12.45;5.68;;;;;;;;;;4986378;28;20027;-66
2021/03/07 14:20:59;;;;;;;9.40;5.25;;;;;;;;;;4988109;28;20057;-66
2021/03/07 14:23:24;;;;;;;8.70;5.45;;;;;;;;;;4979480;28;20037;-66
2021/03/07 14:25:49;;;;;;;10.60;5.10;;;;;;;;;;4979292;28;20048;-66